Carroll, Iowa
Current Conditions -  °F | °C
As of 7:15 PM on Sunday 21 Dec 2014 (Local Time) from KCIN Reporting Station
Overcast Overcast  
Wind Chill: 30°   Ceiling: 400
Heat Index: 39°   Visibility: 7mi
Dew Point: 39°   Wind: 16mph
Humidity: 100%   Direction: 170°S
Pressure: 29.71"   Gusts: 23mph
Location:  42.07°N, 94.87°W
Report Text: KCIN 220115Z AUTO 17014G20KT 7SM OVC004 04/04 A2971 RMK AO2
Loading
Personal Weather Stations






























Interactive Weather Map New forecast layout! Learn more

10-Day Weather Forecast

Advertisements
Track Severe Weather on mobile